Depesze METAR lotnisk w Polsce

METAR – format kodowanego raportu o pogodzie używany w meteorologii lotniczej i prognozie pogody. METAR jest akronimem od ang. Meteorological Aerodrome Report. Typowy METAR zawiera informację o temperaturze, ciśnieniu, temperaturze punktu rosy, sile i kierunku wiatru, opadzie, pokrywie chmur, wysokości podstawy chmur, widzialności, lecz może zawierać też inne informacje (np. stan dróg startowych).

Warszawa-Okęcie (EPWA)

METAR = EPWA 280830Z VRB04KT CAVOK 23/09 Q1024 NOSIG

STACJA......... EPWA - Warszawa-Okęcie (WAW)
POMIAR......... Sun May 28, 10:30 CEST
WIATR.......... zmienny z prędkością 7 km/h
WIDZIALNOŚĆ.... powyżej 10 kilometrów
CHMURY......... bezchmurne niebo
TEMPERATURA.... 23°C
T.PUNKTU ROSY.. 9°C
WILGOTNOŚĆ..... 41%
CIŚNIENIE...... 1024 hPa
CIŚN.BEZWZGL... 1011 hPa
PROGNOZA....... bez nagłych zmian w ciągu 2h

Sprawdź też: Prognoza pogody Warszawa

Warszawa-Modlin (EPMO)

METAR = EPMO 280830Z 27006KT 220V310 CAVOK 23/09 Q1023 =

STACJA......... EPMO - Warszawa-Modlin (WMI)
POMIAR......... Sun May 28, 10:30 CEST
WIATR.......... zachodni (W) z prędkością 11 km/h
WIDZIALNOŚĆ.... powyżej 10 kilometrów
CHMURY......... bezchmurne niebo
TEMPERATURA.... 23°C
T.PUNKTU ROSY.. 9°C
WILGOTNOŚĆ..... 41%
CIŚNIENIE...... 1023 hPa
CIŚN.BEZWZGL... 1011 hPa

Sprawdź też: Prognoza pogody Nowy Dwór Mazowiecki

Kraków-Balice (EPKK)

METAR = EPKK 280830Z 11005KT 040V150 CAVOK 20/09 Q1025

STACJA......... EPKK - Kraków-Balice (KRK)
POMIAR......... Sun May 28, 10:30 CEST
WIATR.......... wschodni południowo-wschodni (ESE) z prędkością 9 km/h
WIDZIALNOŚĆ.... powyżej 10 kilometrów
CHMURY......... bezchmurne niebo
TEMPERATURA.... 20°C
T.PUNKTU ROSY.. 9°C
WILGOTNOŚĆ..... 49%
CIŚNIENIE...... 1025 hPa
CIŚN.BEZWZGL... 997 hPa

Sprawdź też: Prognoza pogody Kraków

Łódź-Lublinek (EPLL)

METAR = EPLL 280830Z 18006KT 120V230 CAVOK 21/09 Q1024

STACJA......... EPLL - Łódź-Lublinek (LCJ)
POMIAR......... Sun May 28, 10:30 CEST
WIATR.......... południowy (S) z prędkością 11 km/h
WIDZIALNOŚĆ.... powyżej 10 kilometrów
CHMURY......... bezchmurne niebo
TEMPERATURA.... 21°C
T.PUNKTU ROSY.. 9°C
WILGOTNOŚĆ..... 46%
CIŚNIENIE...... 1024 hPa
CIŚN.BEZWZGL... 1002 hPa

Sprawdź też: Prognoza pogody Łódź

Wrocław-Strachowice (EPWR)

METAR = EPWR 280830Z 15010KT CAVOK 22/10 Q1023

STACJA......... EPWR - Wrocław-Strachowice (WRO)
POMIAR......... Sun May 28, 10:30 CEST
WIATR.......... południowo południowo-wschodni (SSE) z prędkością 19 km/h
WIDZIALNOŚĆ.... powyżej 10 kilometrów
CHMURY......... bezchmurne niebo
TEMPERATURA.... 22°C
T.PUNKTU ROSY.. 10°C
WILGOTNOŚĆ..... 47%
CIŚNIENIE...... 1023 hPa
CIŚN.BEZWZGL... 1009 hPa

Sprawdź też: Prognoza pogody Wrocław

Katowice-Pyrzowice (EPKT)

METAR = EPKT 280830Z 14009KT 110V170 CAVOK 20/08 Q1024

STACJA......... EPKT - Katowice-Pyrzowice (KTW)
POMIAR......... Sun May 28, 10:30 CEST
WIATR.......... południowo wschodni (SE) z prędkością 17 km/h
WIDZIALNOŚĆ.... powyżej 10 kilometrów
CHMURY......... bezchmurne niebo
TEMPERATURA.... 20°C
T.PUNKTU ROSY.. 8°C
WILGOTNOŚĆ..... 46%
CIŚNIENIE...... 1024 hPa
CIŚN.BEZWZGL... 989 hPa

Sprawdź też: Prognoza pogody Katowice

Gdańsk (EPGD)

METAR = EPGD 280830Z 23010KT CAVOK 24/09 Q1021

STACJA......... EPGD - Gdańsk im. Lecha Wałęsy (GDN)
POMIAR......... Sun May 28, 10:30 CEST
WIATR.......... południowo-zachodni (SW) z prędkością 19 km/h
WIDZIALNOŚĆ.... powyżej 10 kilometrów
CHMURY......... bezchmurne niebo
TEMPERATURA.... 24°C
T.PUNKTU ROSY.. 9°C
WILGOTNOŚĆ..... 39%
CIŚNIENIE...... 1021 hPa
CIŚN.BEZWZGL... 1004 hPa

Sprawdź też: Prognoza pogody Gdańsk

Poznań-Ławica (EPPO)

METAR = EPPO 280830Z 21012KT CAVOK 24/09 Q1022

STACJA......... EPPO - Poznań-Ławica (POZ)
POMIAR......... Sun May 28, 10:30 CEST
WIATR.......... południowo południowo-zachodni  (SSW) z prędkością 22 km/h
WIDZIALNOŚĆ.... powyżej 10 kilometrów
CHMURY......... bezchmurne niebo
TEMPERATURA.... 24°C
T.PUNKTU ROSY.. 9°C
WILGOTNOŚĆ..... 39%
CIŚNIENIE...... 1022 hPa
CIŚN.BEZWZGL... 1011 hPa

Sprawdź też: Prognoza pogody Poznań

Rzeszów-Jasionka (EPRZ)

METAR = EPRZ 280830Z VRB02KT 9999 FEW045 20/08 Q1025

STACJA......... EPRZ - Rzeszów-Jasionka (RZE)
POMIAR......... Sun May 28, 10:30 CEST
WIATR.......... zmienny z prędkością 4 km/h
WIDZIALNOŚĆ.... powyżej 10 kilometrów
CHMURY......... zachmurzenie niewielkie (1/8-2/8)
TEMPERATURA.... 20°C
T.PUNKTU ROSY.. 8°C
WILGOTNOŚĆ..... 46%
CIŚNIENIE...... 1025 hPa
CIŚN.BEZWZGL... 1000 hPa

Sprawdź też: Prognoza pogody Rzeszów

Szczecin-Goleniów (EPSC)

METAR = EPSC 280830Z 16010KT CAVOK 22/12 Q1020

STACJA......... EPSC - Szczecin-Goleniów (SZZ)
POMIAR......... Sun May 28, 10:30 CEST
WIATR.......... południowo południowo-wschodni (SSE) z prędkością 19 km/h
WIDZIALNOŚĆ.... powyżej 10 kilometrów
CHMURY......... bezchmurne niebo
TEMPERATURA.... 22°C
T.PUNKTU ROSY.. 12°C
WILGOTNOŚĆ..... 53%
CIŚNIENIE...... 1020 hPa
CIŚN.BEZWZGL... 1015 hPa

Sprawdź też: Prognoza pogody Szczecin

Lublin-Świdnik (EPLB)

METAR = EPLB 280830Z VRB03KT CAVOK 22/10 Q1024 =

STACJA......... EPLB - Lublin-Świdnik (LUZ)
POMIAR......... Sun May 28, 10:30 CEST
WIATR.......... zmienny z prędkością 6 km/h
WIDZIALNOŚĆ.... powyżej 10 kilometrów
CHMURY......... bezchmurne niebo
TEMPERATURA.... 22°C
T.PUNKTU ROSY.. 10°C
WILGOTNOŚĆ..... 47%
CIŚNIENIE...... 1024 hPa
CIŚN.BEZWZGL... 1000 hPa

Sprawdź też: Prognoza pogody Lublin

Bydgoszcz-Szwederowo (EPBY)

METAR = EPBY 280830Z 22010KT 190V260 CAVOK 23/09 Q1022 =

STACJA......... EPBY - Bydgoszcz-Szwederowo (BZG)
POMIAR......... Sun May 28, 10:30 CEST
WIATR.......... południowo-zachodni (SW) z prędkością 19 km/h
WIDZIALNOŚĆ.... powyżej 10 kilometrów
CHMURY......... bezchmurne niebo
TEMPERATURA.... 23°C
T.PUNKTU ROSY.. 9°C
WILGOTNOŚĆ..... 41%
CIŚNIENIE...... 1022 hPa
CIŚN.BEZWZGL... 1014 hPa

Sprawdź też: Prognoza pogody Bydgoszcz

Zielona Góra-Babimost (EPZG)

METAR = EPZG 280830Z 17006KT 100V220 CAVOK 24/10 Q1022 =

STACJA......... EPZG - Zielona Góra-Babimost (IEG)
POMIAR......... Sun May 28, 10:30 CEST
WIATR.......... południowy (S) z prędkością 11 km/h
WIDZIALNOŚĆ.... powyżej 10 kilometrów
CHMURY......... bezchmurne niebo
TEMPERATURA.... 24°C
T.PUNKTU ROSY.. 10°C
WILGOTNOŚĆ..... 41%
CIŚNIENIE...... 1022 hPa
CIŚN.BEZWZGL... 1015 hPa

Sprawdź też: Prognoza pogody Zielona Góra

Szymany Olsztyn-Mazury (EPSY)

METAR = EPSY 280830Z 24007KT 200V290 CAVOK 24/08 Q1023=

STACJA......... EPSY - Olsztyn-Mazury (SZY)
POMIAR......... Sun May 28, 10:30 CEST
WIATR.......... zachodni południowo-zachodni (WSW) z prędkością 13 km/h
WIDZIALNOŚĆ.... powyżej 10 kilometrów
CHMURY......... bezchmurne niebo
TEMPERATURA.... 24°C
T.PUNKTU ROSY.. 8°C
WILGOTNOŚĆ..... 36%
CIŚNIENIE...... 1023 hPa
CIŚN.BEZWZGL... 1007 hPa

Sprawdź też: Prognoza pogody Olsztyn